Time;durP1;ratioP1;P1;durP2;ratioP2;P2;SDS_P1;SDS_P2;PMS_P1;PMS_P2;Temp;Humidity;BMP_temperature;BMP_pressure;BME280_temperature;BME280_humidity;BME280_pressure;Samples;Min_cycle;Max_cycle;Signal;HPM_P1;HPM_P2
2023/02/05 00:00:42;;;;;;;;;;;;;;;;;;5047668;28;4484;-60
2023/02/05 00:03:07;;;;;;;;;;;;;;;;;;5047256;28;4960;-61
2023/02/05 00:05:32;;;;;;;;;;;;;;;;;;5062705;28;4807;-62
2023/02/05 00:07:57;;;;;;;;;;;;;;;;;;5053291;28;3298;-61
2023/02/05 00:10:23;;;;;;;;;;;;;;;;;;5049176;28;4980;-61
2023/02/05 00:12:48;;;;;;;;;;;;;;;;;;5048565;28;5129;-59
2023/02/05 00:15:13;;;;;;;;;;;;;;;;;;5046307;28;5145;-61
2023/02/05 00:17:38;;;;;;;;;;;;;;;;;;5042418;28;5472;-62
2023/02/05 00:20:04;;;;;;;;;;;;;;;;;;5048529;28;5312;-62
2023/02/05 00:22:29;;;;;;;;;;;;;;;;;;5043546;28;3263;-61
2023/02/05 00:24:55;;;;;;;;;;;;;;;;;;5045820;28;4932;-61
2023/02/05 00:27:20;;;;;;;;;;;;;;;;;;5048566;28;4879;-62
2023/02/05 00:29:45;;;;;;;;;;;;;;;;;;5047907;28;4925;-61
2023/02/05 00:32:10;;;;;;;;;;;;;;;;;;5048730;28;5004;-61
2023/02/05 00:34:35;;;;;;;;;;;;;;;;;;5057423;28;1175;-61
2023/02/05 00:37:01;;;;;;;;;;;;;;;;;;5048837;28;4975;-61
2023/02/05 00:39:26;;;;;;;;;;;;;;;;;;5050890;28;4419;-61
2023/02/05 00:41:51;;;;;;;;;;;;;;;;;;5052262;28;4671;-61
2023/02/05 00:44:17;;;;;;;;;;;;;;;;;;5051672;28;4715;-62
2023/02/05 00:46:42;;;;;;;;;;;;;;;;;;5052969;28;1124;-61
2023/02/05 00:49:07;;;;;;;;;;;;;;;;;;5052477;28;5046;-62
2023/02/05 00:51:32;;;;;;;;;;;;;;;;;;5052015;28;5152;-62
2023/02/05 00:53:58;;;;;;;;;;;;;;;;;;5049468;28;5290;-62
2023/02/05 00:56:23;;;;;;;;;;;;;;;;;;5050772;28;4960;-61
2023/02/05 00:58:50;;;;;;;;;;;;;;;;;;5049330;28;1172;-62
2023/02/05 01:01:15;;;;;;;;;;;;;;;;;;5045859;28;5111;-60
2023/02/05 01:03:40;;;;;;;;;;;;;;;;;;5052159;28;4607;-59
2023/02/05 01:06:06;;;;;;;;;;;;;;;;;;5052267;28;4967;-60
2023/02/05 01:08:31;;;;;;;;;;;;;;;;;;5049373;28;5046;-61
2023/02/05 01:10:56;;;;;;;;;;;;;;;;;;5058427;28;1519;-62
2023/02/05 01:13:21;;;;;;;;;;;;;;;;;;5046375;28;4951;-61
2023/02/05 01:15:47;;;;;;;;;;;;;;;;;;5051867;28;5059;-61
2023/02/05 01:18:12;;;;;;;;;;;;;;;;;;5052288;28;5028;-60
2023/02/05 01:20:38;;;;;;;;;;;;;;;;;;5043521;28;5204;-60
2023/02/05 01:23:03;;;;;;;;;;;;;;;;;;5050707;28;5167;-61
2023/02/05 01:25:28;;;;;;;;;;;;;;;;;;5052265;28;1202;-61
2023/02/05 01:27:53;;;;;;;;;;;;;;;;;;5044691;28;4854;-61
2023/02/05 01:30:19;;;;;;;;;;;;;;;;;;5050479;28;4981;-61
2023/02/05 01:32:44;;;;;;;;;;;;;;;;;;5051391;28;4950;-60
2023/02/05 01:35:09;;;;;;;;;;;;;;;;;;5051473;28;4996;-60
2023/02/05 01:37:34;;;;;;;;;;;;;;;;;;5046976;28;3485;-59
2023/02/05 01:40:00;;;;;;;;;;;;;;;;;;5049140;28;5047;-61
2023/02/05 01:42:26;;;;;;;;;;;;;;;;;;5051166;28;4963;-60
2023/02/05 01:45:10;;;;;;;;;;;;;;;;;;5043697;28;4863;-60
2023/02/05 01:47:35;;;;;;;;;;;;;;;;;;5047648;28;4441;-61
2023/02/05 01:50:00;;;;;;;;;;;;;;;;;;5050963;28;4892;-60
2023/02/05 01:52:26;;;;;;;;;;;;;;;;;;5051274;28;3133;-60
2023/02/05 01:54:53;;;;;;;;;;;;;;;;;;5049514;28;5043;-60
2023/02/05 01:57:19;;;;;;;;;;;;;;;;;;5045470;28;4574;-60
2023/02/05 01:59:45;;;;;;;;;;;;;;;;;;5054862;28;5161;-61
2023/02/05 02:02:10;;;;;;;;;;;;;;;;;;5050791;28;4930;-62
2023/02/05 02:04:43;;;;;;;;;;;;;;;;;;5050849;28;3200;-61
2023/02/05 02:07:09;;;;;;;;;;;;;;;;;;5043142;28;5016;-62
2023/02/05 02:09:35;;;;;;;;;;;;;;;;;;5077240;28;5177;-61
2023/02/05 02:12:00;;;;;;;;;;;;;;;;;;5034643;28;5189;-61
2023/02/05 02:14:25;;;;;;;;;;;;;;;;;;5083181;28;5073;-62
2023/02/05 02:16:51;;;;;;;;;;;;;;;;;;5050927;28;2440;-60
2023/02/05 02:19:17;;;;;;;;;;;;;;;;;;5059537;28;5350;-60
2023/02/05 02:21:46;;;;;;;;;;;;;;;;;;5050330;28;4446;-59
2023/02/05 02:24:12;;;;;;;;;;;;;;;;;;5049345;28;4825;-60
2023/02/05 02:26:57;;;;;;;;;;;;;;;;;;5062793;28;5030;-61
2023/02/05 02:29:24;;;;;;;;;;;;;;;;;;5050270;28;4575;-61
2023/02/05 02:31:50;;;;;;;;;;;;;;;;;;5080240;28;1106;-60
2023/02/05 02:34:17;;;;;;;;;;;;;;;;;;5048647;28;5000;-62
2023/02/05 02:36:51;;;;;;;;;;;;;;;;;;5072356;28;5098;-58
2023/02/05 02:39:25;;;;;;;;;;;;;;;;;;5049658;28;4996;-61
2023/02/05 02:41:59;;;;;;;;;;;;;;;;;;5050062;28;5065;-62
2023/02/05 02:44:25;;;;;;;;;;;;;;;;;;5076368;28;4787;-61
2023/02/05 02:46:53;;;;;;;;;;;;;;;;;;5059245;28;1345;-58
2023/02/05 02:49:37;;;;;;;;;;;;;;;;;;5058423;28;4802;-60
2023/02/05 02:52:03;;;;;;;;;;;;;;;;;;5056478;28;4585;-63
2023/02/05 02:54:29;;;;;;;;;;;;;;;;;;5082332;28;4444;-61
2023/02/05 02:56:54;;;;;;;;;;;;;;;;;;5063579;28;4876;-62
2023/02/05 02:59:21;;;;;;;;;;;;;;;;;;5079669;28;4493;-61
2023/02/05 03:01:48;;;;;;;;;;;;;;;;;;5048534;28;1381;-59
2023/02/05 03:04:18;;;;;;;;;;;;;;;;;;5049539;28;4969;-61
2023/02/05 03:06:44;;;;;;;;;;;;;;;;;;5051556;28;4965;-60
2023/02/05 03:09:11;;;;;;;;;;;;;;;;;;5064039;28;5161;-59
2023/02/05 03:11:36;;;;;;;;;;;;;;;;;;5080419;28;5165;-60
2023/02/05 03:14:01;;;;;;;;;;;;;;;;;;5075455;28;4999;-61
2023/02/05 03:16:27;;;;;;;;;;;;;;;;;;5060871;28;1129;-60
2023/02/05 03:18:52;;;;;;;;;;;;;;;;;;5049359;28;4996;-60
2023/02/05 03:21:20;;;;;;;;;;;;;;;;;;5080675;28;4483;-60
2023/02/05 03:23:45;;;;;;;;;;;;;;;;;;5040454;28;5084;-61
2023/02/05 03:26:41;;;;;;;;;;;;;;;;;;5079006;28;4742;-61
2023/02/05 03:29:09;;;;;;;;;;;;;;;;;;5044976;28;4773;-60
2023/02/05 03:31:53;;;;;;;;;;;;;;;;;;5043639;28;3256;-60
2023/02/05 03:34:19;;;;;;;;;;;;;;;;;;5044507;28;5106;-60
2023/02/05 03:37:03;;;;;;;;;;;;;;;;;;5038892;28;4560;-60
2023/02/05 03:39:28;;;;;;;;;;;;;;;;;;5048087;28;5074;-62
2023/02/05 03:41:57;;;;;;;;;;;;;;;;;;5047712;28;5147;-62
2023/02/05 03:44:41;;;;;;;;;;;;;;;;;;5039611;28;4659;-59
2023/02/05 03:47:24;;;;;;;;;;;;;;;;;;5046485;28;5054;-61
2023/02/05 03:50:02;;;;;;;;;;;;;;;;;;5047056;28;3289;-60
2023/02/05 03:52:31;;;;;;;;;;;;;;;;;;5048327;28;5129;-61
2023/02/05 03:54:56;;;;;;;;;;;;;;;;;;5050770;28;5023;-60
2023/02/05 03:57:23;;;;;;;;;;;;;;;;;;5046112;28;5061;-60
2023/02/05 03:59:48;;;;;;;;;;;;;;;;;;5044307;28;4760;-61
2023/02/05 04:02:14;;;;;;;;;;;;;;;;;;5043238;28;5584;-60
2023/02/05 04:04:39;;;;;;;;;;;;;;;;;;5043735;28;3455;-60
2023/02/05 04:07:04;;;;;;;;;;;;;;;;;;5045565;28;5018;-60
2023/02/05 04:09:29;;;;;;;;;;;;;;;;;;5044443;28;4972;-58
2023/02/05 04:11:55;;;;;;;;;;;;;;;;;;5045308;28;5065;-59
2023/02/05 04:14:20;;;;;;;;;;;;;;;;;;5044082;28;5238;-60
2023/02/05 04:16:45;;;;;;;;;;;;;;;;;;5046183;28;3079;-60
2023/02/05 04:19:10;;;;;;;;;;;;;;;;;;5048550;28;4997;-61
2023/02/05 04:21:36;;;;;;;;;;;;;;;;;;5048845;28;4903;-60
2023/02/05 04:24:01;;;;;;;;;;;;;;;;;;5048445;28;5055;-60
2023/02/05 04:26:26;;;;;;;;;;;;;;;;;;5048667;28;5073;-61
2023/02/05 04:28:51;;;;;;;;;;;;;;;;;;5048730;28;1387;-60
2023/02/05 04:31:17;;;;;;;;;;;;;;;;;;5046850;28;4924;-61
2023/02/05 04:33:42;;;;;;;;;;;;;;;;;;5048219;28;5295;-60
2023/02/05 04:36:07;;;;;;;;;;;;;;;;;;5044008;28;5161;-61
2023/02/05 04:38:33;;;;;;;;;;;;;;;;;;5047986;28;5141;-61
2023/02/05 04:40:58;;;;;;;;;;;;;;;;;;5045625;28;1973;-60
2023/02/05 04:43:24;;;;;;;;;;;;;;;;;;5048139;28;4743;-61
2023/02/05 04:45:49;;;;;;;;;;;;;;;;;;5048139;28;5500;-61
2023/02/05 04:48:14;;;;;;;;;;;;;;;;;;5048467;28;4622;-61
2023/02/05 04:50:39;;;;;;;;;;;;;;;;;;5045634;28;4898;-60
2023/02/05 04:53:05;;;;;;;;;;;;;;;;;;5046854;28;5520;-59
2023/02/05 04:55:30;;;;;;;;;;;;;;;;;;5044666;28;3430;-59
2023/02/05 04:57:55;;;;;;;;;;;;;;;;;;5044745;28;5005;-60
2023/02/05 05:00:21;;;;;;;;;;;;;;;;;;5047906;28;4413;-60
2023/02/05 05:02:46;;;;;;;;;;;;;;;;;;5046377;28;5049;-61
2023/02/05 05:05:11;;;;;;;;;;;;;;;;;;5048270;28;5075;-61
2023/02/05 05:07:37;;;;;;;;;;;;;;;;;;5046934;28;3172;-61
2023/02/05 05:10:02;;;;;;;;;;;;;;;;;;5044719;28;4941;-61
2023/02/05 05:12:27;;;;;;;;;;;;;;;;;;5075317;28;4961;-61
2023/02/05 05:14:53;;;;;;;;;;;;;;;;;;5047493;28;5019;-61
2023/02/05 05:17:18;;;;;;;;;;;;;;;;;;5047819;28;4646;-60
2023/02/05 05:19:43;;;;;;;;;;;;;;;;;;5048335;28;1971;-60
2023/02/05 05:22:08;;;;;;;;;;;;;;;;;;5049381;28;4873;-60
2023/02/05 05:24:33;;;;;;;;;;;;;;;;;;5051860;28;4413;-60
2023/02/05 05:26:59;;;;;;;;;;;;;;;;;;5051599;28;5027;-61
2023/02/05 05:29:24;;;;;;;;;;;;;;;;;;5048724;28;5080;-59
2023/02/05 05:31:52;;;;;;;;;;;;;;;;;;5051873;28;1187;-60
2023/02/05 05:34:18;;;;;;;;;;;;;;;;;;5044373;28;4398;-61
2023/02/05 05:36:43;;;;;;;;;;;;;;;;;;5049580;28;4837;-59
2023/02/05 05:44:38;;;;;;;;;;;;;;;;;;5048087;28;5107;-62
2023/02/05 05:47:03;;;;;;;;;;;;;;;;;;5048261;28;5116;-60
2023/02/05 05:49:28;;;;;;;;;;;;;;;;;;5045506;28;3433;-60
2023/02/05 05:51:53;;;;;;;;;;;;;;;;;;5038506;28;4492;-61
2023/02/05 05:54:19;;;;;;;;;;;;;;;;;;5046699;28;5021;-60
2023/02/05 05:56:44;;;;;;;;;;;;;;;;;;5050709;28;4994;-60
2023/02/05 05:59:10;;;;;;;;;;;;;;;;;;5050634;28;5058;-60
2023/02/05 06:01:36;;;;;;;;;;;;;;;;;;5052071;28;1171;-61
2023/02/05 06:04:02;;;;;;;;;;;;;;;;;;5046749;28;4617;-60
2023/02/05 06:06:27;;;;;;;;;;;;;;;;;;5050909;28;5136;-61
2023/02/05 06:08:52;;;;;;;;;;;;;;;;;;5050169;28;5093;-60
2023/02/05 06:11:17;;;;;;;;;;;;;;;;;;5050635;28;5049;-60
2023/02/05 06:13:43;;;;;;;;;;;;;;;;;;5050219;28;2224;-56
2023/02/05 06:16:08;;;;;;;;;;;;;;;;;;5048304;28;4957;-61
2023/02/05 06:18:33;;;;;;;;;;;;;;;;;;5050438;28;5098;-60
2023/02/05 06:20:58;;;;;;;;;;;;;;;;;;5050485;28;5045;-61
2023/02/05 06:23:24;;;;;;;;;;;;;;;;;;5049644;28;5068;-60
2023/02/05 06:25:49;;;;;;;;;;;;;;;;;;5044499;28;1150;-61
2023/02/05 06:28:14;;;;;;;;;;;;;;;;;;5048841;28;4907;-59
2023/02/05 06:30:39;;;;;;;;;;;;;;;;;;5046703;28;4796;-60
2023/02/05 06:33:05;;;;;;;;;;;;;;;;;;5039895;28;5152;-60
2023/02/05 06:35:30;;;;;;;;;;;;;;;;;;5037771;28;4966;-60
2023/02/05 06:37:55;;;;;;;;;;;;;;;;;;5049620;28;1633;-60
2023/02/05 06:40:24;;;;;;;;;;;;;;;;;;5051016;28;5004;-61
2023/02/05 06:42:49;;;;;;;;;;;;;;;;;;5056164;28;4692;-59
2023/02/05 06:45:15;;;;;;;;;;;;;;;;;;5079050;28;4551;-61
2023/02/05 06:47:40;;;;;;;;;;;;;;;;;;5048495;28;5007;-60
2023/02/05 06:50:05;;;;;;;;;;;;;;;;;;5048828;28;5155;-61
2023/02/05 06:52:30;;;;;;;;;;;;;;;;;;5045898;28;3037;-60
2023/02/05 06:54:56;;;;;;;;;;;;;;;;;;5047461;28;5083;-60
2023/02/05 06:57:21;;;;;;;;;;;;;;;;;;5042952;28;5023;-60
2023/02/05 06:59:46;;;;;;;;;;;;;;;;;;5055281;28;5157;-61
2023/02/05 07:02:12;;;;;;;;;;;;;;;;;;5082142;28;5259;-61
2023/02/05 07:04:37;;;;;;;;;;;;;;;;;;5043543;28;3449;-61
2023/02/05 07:07:02;;;;;;;;;;;;;;;;;;5040593;28;4894;-57
2023/02/05 07:09:27;;;;;;;;;;;;;;;;;;5049592;28;5563;-60
2023/02/05 07:11:53;;;;;;;;;;;;;;;;;;5056292;28;5132;-65
2023/02/05 07:14:18;;;;;;;;;;;;;;;;;;5057661;28;5043;-58
2023/02/05 07:16:43;;;;;;;;;;;;;;;;;;5048658;28;3564;-58
2023/02/05 07:19:09;;;;;;;;;;;;;;;;;;5047440;28;5052;-58
2023/02/05 07:21:34;;;;;;;;;;;;;;;;;;5042107;28;5181;-57
2023/02/05 07:23:59;;;;;;;;;;;;;;;;;;5045349;28;5092;-58
2023/02/05 07:26:24;;;;;;;;;;;;;;;;;;5042610;28;5597;-58
2023/02/05 07:28:50;;;;;;;;;;;;;;;;;;5047966;28;3199;-58
2023/02/05 07:31:17;;;;;;;;;;;;;;;;;;5046634;28;4405;-58
2023/02/05 07:33:43;;;;;;;;;;;;;;;;;;5046922;28;5061;-59
2023/02/05 07:36:08;;;;;;;;;;;;;;;;;;5042766;28;5256;-59
2023/02/05 07:38:34;;;;;;;;;;;;;;;;;;5047540;28;4915;-58
2023/02/05 07:41:03;;;;;;;;;;;;;;;;;;5048658;28;5158;-59
2023/02/05 07:43:28;;;;;;;;;;;;;;;;;;5046372;28;4565;-58
2023/02/05 07:45:57;;;;;;;;;;;;;;;;;;5037359;28;5213;-58
2023/02/05 07:48:22;;;;;;;;;;;;;;;;;;5064451;28;5160;-59
2023/02/05 07:50:47;;;;;;;;;;;;;;;;;;5045950;28;4792;-59
2023/02/05 07:53:12;;;;;;;;;;;;;;;;;;5046168;28;5148;-59
2023/02/05 07:55:38;;;;;;;;;;;;;;;;;;5045546;28;3584;-58
2023/02/05 07:58:03;;;;;;;;;;;;;;;;;;5053901;28;4944;-58
2023/02/05 08:00:28;;;;;;;;;;;;;;;;;;5043268;28;5113;-59
2023/02/05 08:02:53;;;;;;;;;;;;;;;;;;5046958;28;5041;-58
2023/02/05 08:05:18;;;;;;;;;;;;;;;;;;5043829;28;5200;-58
2023/02/05 08:07:44;;;;;;;;;;;;;;;;;;5046377;28;1515;-58
2023/02/05 08:10:10;;;;;;;;;;;;;;;;;;5044556;28;5064;-58
2023/02/05 08:12:35;;;;;;;;;;;;;;;;;;5075865;28;6116;-58
2023/02/05 08:15:00;;;;;;;;;;;;;;;;;;5043436;28;5010;-58
2023/02/05 08:17:25;;;;;;;;;;;;;;;;;;5046687;28;5059;-58
2023/02/05 08:19:51;;;;;;;;;;;;;;;;;;5041891;28;3356;-58
2023/02/05 08:22:16;;;;;;;;;;;;;;;;;;5045739;28;4999;-58
2023/02/05 08:24:41;;;;;;;;;;;;;;;;;;5046576;28;5147;-58
2023/02/05 08:27:06;;;;;;;;;;;;;;;;;;5047978;28;6121;-57
2023/02/05 08:29:32;;;;;;;;;;;;;;;;;;5040036;28;5163;-58
2023/02/05 08:31:57;;;;;;;;;;;;;;;;;;5046375;28;3406;-58
2023/02/05 08:34:22;;;;;;;;;;;;;;;;;;5047223;28;4944;-58
2023/02/05 08:36:47;;;;;;;;;;;;;;;;;;5042601;28;4495;-59
2023/02/05 08:39:13;;;;;;;;;;;;;;;;;;5043036;28;5063;-58
2023/02/05 08:41:38;;;;;;;;;;;;;;;;;;5040370;28;5063;-56
2023/02/05 08:44:03;;;;;;;;;;;;;;;;;;5043982;28;5107;-59
2023/02/05 08:46:29;;;;;;;;;;;;;;;;;;5047324;28;3299;-59
2023/02/05 08:48:54;;;;;;;;;;;;;;;;;;5044097;28;5046;-58
2023/02/05 08:51:19;;;;;;;;;;;;;;;;;;5048005;28;4465;-58
2023/02/05 08:53:45;;;;;;;;;;;;;;;;;;5080364;28;4497;-59
2023/02/05 08:56:11;;;;;;;;;;;;;;;;;;5047328;28;4508;-59
2023/02/05 08:58:37;;;;;;;;;;;;;;;;;;5052573;28;1348;-58
2023/02/05 09:01:04;;;;;;;;;;;;;;;;;;5049970;28;4981;-58
2023/02/05 09:03:29;;;;;;;;;;;;;;;;;;5052181;28;5034;-58
2023/02/05 09:05:55;;;;;;;;;;;;;;;;;;5051279;28;4774;-58
2023/02/05 09:08:20;;;;;;;;;;;;;;;;;;5046729;28;5203;-55
2023/02/05 09:10:46;;;;;;;;;;;;;;;;;;5052349;28;1075;-57
2023/02/05 09:13:12;;;;;;;;;;;;;;;;;;5051201;28;5082;-60
2023/02/05 09:15:41;;;;;;;;;;;;;;;;;;5051598;28;5667;-60
2023/02/05 09:18:06;;;;;;;;;;;;;;;;;;5052006;28;5016;-61
2023/02/05 09:20:32;;;;;;;;;;;;;;;;;;5081563;28;5239;-64
2023/02/05 09:22:57;;;;;;;;;;;;;;;;;;5056865;28;1294;-63
2023/02/05 09:25:22;;;;;;;;;;;;;;;;;;5053265;28;4949;-64
2023/02/05 09:27:47;;;;;;;;;;;;;;;;;;5049075;28;4611;-64
2023/02/05 09:30:13;;;;;;;;;;;;;;;;;;5045973;28;4574;-63
2023/02/05 09:32:38;;;;;;;;;;;;;;;;;;5050211;28;5185;-63
2023/02/05 09:35:03;;;;;;;;;;;;;;;;;;5055522;28;5467;-62
2023/02/05 09:37:29;;;;;;;;;;;;;;;;;;5049529;28;1293;-64
2023/02/05 09:39:54;;;;;;;;;;;;;;;;;;5049904;28;5072;-62
2023/02/05 09:42:34;;;;;;;;;;;;;;;;;;5050408;28;5499;-63
2023/02/05 09:45:02;;;;;;;;;;;;;;;;;;5082920;28;5117;-63
2023/02/05 09:47:37;;;;;;;;;;;;;;;;;;5050456;28;5118;-63
2023/02/05 09:50:05;;;;;;;;;;;;;;;;;;5076228;28;5146;-61
2023/02/05 09:52:35;;;;;;;;;;;;;;;;;;5048322;28;1224;-64
2023/02/05 09:55:01;;;;;;;;;;;;;;;;;;5047336;28;4487;-62
2023/02/05 09:57:30;;;;;;;;;;;;;;;;;;5044636;28;5050;-63
2023/02/05 09:59:55;;;;;;;;;;;;;;;;;;5050003;28;4636;-63
2023/02/05 10:02:22;;;;;;;;;;;;;;;;;;5047803;28;5043;-63
2023/02/05 10:04:49;;;;;;;;;;;;;;;;;;5076738;28;1163;-63
2023/02/05 10:07:21;;;;;;;;;;;;;;;;;;5046276;28;4530;-63
2023/02/05 10:10:06;;;;;;;;;;;;;;;;;;5082549;28;5028;-63
2023/02/05 10:12:49;;;;;;;;;;;;;;;;;;5077597;28;5131;-63
2023/02/05 10:15:18;;;;;;;;;;;;;;;;;;5047035;28;4479;-64
2023/02/05 10:17:52;;;;;;;;;;;;;;;;;;5042326;28;4632;-64
2023/02/05 10:20:26;;;;;;;;;;;;;;;;;;5047222;28;5003;-59
2023/02/05 10:22:51;;;;;;;;;;;;;;;;;;5045326;28;1186;-64
2023/02/05 10:25:17;;;;;;;;;;;;;;;;;;5047460;28;5107;-64
2023/02/05 10:27:45;;;;;;;;;;;;;;;;;;5050472;28;5147;-64
2023/02/05 10:30:13;;;;;;;;;;;;;;;;;;5048559;28;4671;-63
2023/02/05 10:32:38;;;;;;;;;;;;;;;;;;5049624;28;4616;-59
2023/02/05 10:35:21;;;;;;;;;;;;;;;;;;5049955;28;4962;-64
2023/02/05 10:37:49;;;;;;;;;;;;;;;;;;5047336;28;2122;-60
2023/02/05 10:40:15;;;;;;;;;;;;;;;;;;5076259;28;4470;-63
2023/02/05 10:42:43;;;;;;;;;;;;;;;;;;5049785;28;4957;-63
2023/02/05 10:45:12;;;;;;;;;;;;;;;;;;5080913;28;4440;-64
2023/02/05 10:47:56;;;;;;;;;;;;;;;;;;5044805;28;4703;-61
2023/02/05 10:50:21;;;;;;;;;;;;;;;;;;5039872;28;4937;-61
2023/02/05 10:52:47;;;;;;;;;;;;;;;;;;5043884;28;3253;-61
2023/02/05 10:55:12;;;;;;;;;;;;;;;;;;5042219;28;4898;-61
2023/02/05 10:57:37;;;;;;;;;;;;;;;;;;5075655;28;5009;-60
2023/02/05 11:00:04;;;;;;;;;;;;;;;;;;5041822;28;5114;-60
2023/02/05 11:02:33;;;;;;;;;;;;;;;;;;5043786;28;5089;-58
2023/02/05 11:05:00;;;;;;;;;;;;;;;;;;5046911;28;1072;-61
2023/02/05 11:07:32;;;;;;;;;;;;;;;;;;5079439;28;5907;-61
2023/02/05 11:10:13;;;;;;;;;;;;;;;;;;5078002;28;5023;-61
2023/02/05 11:12:38;;;;;;;;;;;;;;;;;;5048942;28;5009;-60
2023/02/05 11:15:03;;;;;;;;;;;;;;;;;;5062175;28;5193;-60
2023/02/05 11:17:33;;;;;;;;;;;;;;;;;;5055769;28;4992;-60
2023/02/05 11:19:59;;;;;;;;;;;;;;;;;;5047905;28;3244;-59
2023/02/05 11:22:29;;;;;;;;;;;;;;;;;;5055679;28;4629;-60
2023/02/05 11:25:25;;;;;;;;;;;;;;;;;;5079805;28;4664;-60
2023/02/05 11:27:57;;;;;;;;;;;;;;;;;;5041311;28;4653;-61
2023/02/05 11:30:24;;;;;;;;;;;;;;;;;;5049594;28;5150;-59
2023/02/05 11:32:50;;;;;;;;;;;;;;;;;;5043330;28;5018;-61
2023/02/05 11:35:19;;;;;;;;;;;;;;;;;;5045044;28;4554;-60
2023/02/05 11:37:46;;;;;;;;;;;;;;;;;;5069208;28;3379;-63
2023/02/05 11:40:21;;;;;;;;;;;;;;;;;;5037788;28;5573;-61
2023/02/05 11:42:48;;;;;;;;;;;;;;;;;;5077059;28;5118;-61
2023/02/05 11:45:18;;;;;;;;;;;;;;;;;;5072888;28;5147;-58
2023/02/05 11:47:44;;;;;;;;;;;;;;;;;;5041186;28;4938;-62
2023/02/05 11:50:22;;;;;;;;;;;;;;;;;;5050547;28;5139;-62
2023/02/05 11:52:47;;;;;;;;;;;;;;;;;;5048646;28;3334;-61
2023/02/05 11:55:26;;;;;;;;;;;;;;;;;;5080293;28;4903;-61
2023/02/05 11:58:01;;;;;;;;;;;;;;;;;;5049279;28;4971;-62
2023/02/05 12:00:26;;;;;;;;;;;;;;;;;;5042483;28;5121;-61
2023/02/05 12:03:05;;;;;;;;;;;;;;;;;;5048830;28;5081;-57
2023/02/05 12:05:34;;;;;;;;;;;;;;;;;;5052466;28;4828;-62
2023/02/05 12:08:01;;;;;;;;;;;;;;;;;;5073669;28;3429;-59
2023/02/05 12:10:29;;;;;;;;;;;;;;;;;;5069362;28;4580;-60
2023/02/05 12:12:58;;;;;;;;;;;;;;;;;;5035137;28;5055;-61
2023/02/05 12:15:38;;;;;;;;;;;;;;;;;;5043229;28;4521;-60
2023/02/05 12:18:33;;;;;;;;;;;;;;;;;;5038064;28;5075;-61
2023/02/05 12:21:00;;;;;;;;;;;;;;;;;;5037049;28;5156;-58
2023/02/05 12:23:28;;;;;;;;;;;;;;;;;;5041703;28;4624;-62
2023/02/05 12:25:59;;;;;;;;;;;;;;;;;;5046302;28;3218;-61
2023/02/05 12:28:31;;;;;;;;;;;;;;;;;;5071375;28;4819;-62
2023/02/05 12:31:08;;;;;;;;;;;;;;;;;;5045378;28;5082;-62
2023/02/05 12:33:37;;;;;;;;;;;;;;;;;;5049313;28;5155;-61
2023/02/05 12:36:14;;;;;;;;;;;;;;;;;;5050290;28;4871;-62
2023/02/05 12:38:49;;;;;;;;;;;;;;;;;;5050114;28;5113;-63
2023/02/05 12:41:14;;;;;;;;;;;;;;;;;;5049268;28;4464;-62
2023/02/05 12:43:40;;;;;;;;;;;;;;;;;;5049285;28;4446;-62
2023/02/05 12:46:06;;;;;;;;;;;;;;;;;;5081106;28;5187;-65
2023/02/05 12:49:09;;;;;;;;;;;;;;;;;;5049367;28;4811;-65
2023/02/05 12:51:38;;;;;;;;;;;;;;;;;;5017698;28;5135;-66
2023/02/05 12:54:21;;;;;;;;;;;;;;;;;;5018338;28;4525;-64
2023/02/05 12:56:54;;;;;;;;;;;;;;;;;;5038324;28;4509;-61
2023/02/05 12:59:20;;;;;;;;;;;;;;;;;;5089035;28;4437;-63
2023/02/05 13:02:05;;;;;;;;;;;;;;;;;;5049137;28;1972;-61
2023/02/05 13:04:37;;;;;;;;;;;;;;;;;;5086856;28;4569;-64
2023/02/05 13:07:07;;;;;;;;;;;;;;;;;;5063328;28;4652;-63
2023/02/05 13:09:40;;;;;;;;;;;;;;;;;;5049580;28;4972;-60
2023/02/05 13:12:06;;;;;;;;;;;;;;;;;;5082747;28;5052;-63
2023/02/05 13:14:47;;;;;;;;;;;;;;;;;;5049313;28;5027;-62
2023/02/05 13:17:12;;;;;;;;;;;;;;;;;;5079972;28;5219;-66
2023/02/05 13:19:39;;;;;;;;;;;;;;;;;;5044478;28;3357;-65
2023/02/05 13:30:41;;;;;;;;;;;;;;;;;;5046835;28;5038;-65
2023/02/05 13:33:06;;;;;;;;;;;;;;;;;;5048129;28;5071;-65
2023/02/05 13:35:47;;;;;;;;;;;;;;;;;;5045068;28;5201;-66
2023/02/05 13:38:38;;;;;;;;;;;;;;;;;;5042261;28;5706;-65
2023/02/05 13:41:16;;;;;;;;;;;;;;;;;;5050946;28;3370;-68
2023/02/05 13:43:50;;;;;;;;;;;;;;;;;;5043002;28;4624;-60
2023/02/05 13:46:18;;;;;;;;;;;;;;;;;;5048364;28;4881;-67
2023/02/05 13:48:43;;;;;;;;;;;;;;;;;;5034849;28;4932;-65
2023/02/05 13:51:09;;;;;;;;;;;;;;;;;;5043284;28;4994;-65
2023/02/05 13:53:52;;;;;;;;;;;;;;;;;;5039196;28;5170;-60
2023/02/05 13:56:36;;;;;;;;;;;;;;;;;;5047171;28;5134;-66
2023/02/05 13:59:21;;;;;;;;;;;;;;;;;;5049536;28;1184;-59
2023/02/05 14:01:51;;;;;;;;;;;;;;;;;;5077619;28;4838;-59
2023/02/05 14:04:21;;;;;;;;;;;;;;;;;;5043748;28;4928;-59
2023/02/05 14:06:49;;;;;;;;;;;;;;;;;;5048309;28;5240;-60
2023/02/05 14:09:29;;;;;;;;;;;;;;;;;;5073874;28;4712;-65
2023/02/05 14:11:56;;;;;;;;;;;;;;;;;;5019865;28;5315;-62
2023/02/05 14:14:24;;;;;;;;;;;;;;;;;;5078378;28;5328;-64
2023/02/05 14:16:49;;;;;;;;;;;;;;;;;;5074807;28;1139;-63
2023/02/05 14:19:15;;;;;;;;;;;;;;;;;;5048320;28;5149;-63
2023/02/05 14:21:43;;;;;;;;;;;;;;;;;;5045290;28;4500;-61
2023/02/05 14:24:23;;;;;;;;;;;;;;;;;;5050031;28;5106;-61
2023/02/05 14:26:55;;;;;;;;;;;;;;;;;;5045010;28;5082;-62
2023/02/05 14:29:42;;;;;;;;;;;;;;;;;;5081539;28;4978;-62
2023/02/05 14:32:30;;;;;;;;;;;;;;;;;;5048751;28;4516;-64
2023/02/05 14:35:14;;;;;;;;;;;;;;;;;;5028707;28;3265;-64
2023/02/05 14:37:40;;;;;;;;;;;;;;;;;;5046653;28;5043;-62
2023/02/05 14:40:25;;;;;;;;;;;;;;;;;;5048132;28;4541;-62
2023/02/05 14:42:51;;;;;;;;;;;;;;;;;;5048640;28;4672;-63
2023/02/05 14:45:17;;;;;;;;;;;;;;;;;;5077979;28;5117;-64
2023/02/05 14:47:45;;;;;;;;;;;;;;;;;;5049128;28;5101;-64
2023/02/05 14:50:16;;;;;;;;;;;;;;;;;;5047340;28;5163;-66
2023/02/05 14:52:49;;;;;;;;;;;;;;;;;;5047386;28;1112;-65
2023/02/05 14:55:14;;;;;;;;;;;;;;;;;;5045483;28;4487;-63
2023/02/05 14:57:48;;;;;;;;;;;;;;;;;;5046232;28;5215;-63
2023/02/05 15:00:25;;;;;;;;;;;;;;;;;;5047286;28;4521;-63
2023/02/05 15:03:09;;;;;;;;;;;;;;;;;;5076257;28;5112;-62
2023/02/05 15:05:40;;;;;;;;;;;;;;;;;;5046953;28;5066;-62
2023/02/05 15:08:06;;;;;;;;;;;;;;;;;;5043707;28;3180;-63
2023/02/05 15:10:33;;;;;;;;;;;;;;;;;;5045030;28;4693;-64
2023/02/05 15:13:03;;;;;;;;;;;;;;;;;;5043445;28;5035;-60
2023/02/05 15:15:31;;;;;;;;;;;;;;;;;;5044695;28;5064;-65
2023/02/05 15:18:15;;;;;;;;;;;;;;;;;;5044387;28;4891;-63
2023/02/05 15:20:41;;;;;;;;;;;;;;;;;;5046339;28;4968;-60
2023/02/05 15:23:13;;;;;;;;;;;;;;;;;;5077339;28;5177;-63
2023/02/05 15:25:40;;;;;;;;;;;;;;;;;;5048847;28;1186;-63
2023/02/05 15:28:15;;;;;;;;;;;;;;;;;;5045681;28;5029;-63
2023/02/05 15:30:50;;;;;;;;;;;;;;;;;;5043400;28;4474;-63
2023/02/05 15:33:23;;;;;;;;;;;;;;;;;;5041403;28;4732;-63
2023/02/05 15:35:50;;;;;;;;;;;;;;;;;;5040730;28;5068;-63
2023/02/05 15:38:25;;;;;;;;;;;;;;;;;;5044503;28;5021;-63
2023/02/05 15:40:52;;;;;;;;;;;;;;;;;;5050327;28;1918;-62
2023/02/05 15:43:24;;;;;;;;;;;;;;;;;;5079946;28;4917;-63
2023/02/05 15:46:19;;;;;;;;;;;;;;;;;;5047391;28;4957;-60
2023/02/05 15:48:44;;;;;;;;;;;;;;;;;;5042527;28;4989;-62
2023/02/05 15:51:12;;;;;;;;;;;;;;;;;;5045913;28;5111;-62
2023/02/05 15:53:40;;;;;;;;;;;;;;;;;;5055745;28;5008;-62
2023/02/05 15:56:13;;;;;;;;;;;;;;;;;;5046689;28;1165;-62
2023/02/05 15:58:39;;;;;;;;;;;;;;;;;;5049381;28;4964;-62
2023/02/05 16:01:04;;;;;;;;;;;;;;;;;;5039239;28;4909;-63
2023/02/05 16:03:32;;;;;;;;;;;;;;;;;;5043189;28;5070;-62
2023/02/05 16:05:57;;;;;;;;;;;;;;;;;;5074904;28;4786;-63
2023/02/05 16:08:23;;;;;;;;;;;;;;;;;;5039894;28;4486;-63
2023/02/05 16:10:53;;;;;;;;;;;;;;;;;;5042027;28;3274;-62
2023/02/05 16:13:19;;;;;;;;;;;;;;;;;;5037413;28;4689;-62
2023/02/05 16:15:56;;;;;;;;;;;;;;;;;;5052914;28;5097;-61
2023/02/05 16:18:31;;;;;;;;;;;;;;;;;;5047209;28;5035;-64
2023/02/05 16:20:57;;;;;;;;;;;;;;;;;;5045067;28;5165;-64
2023/02/05 16:23:34;;;;;;;;;;;;;;;;;;5046609;28;4910;-64
2023/02/05 16:26:03;;;;;;;;;;;;;;;;;;5048704;28;1638;-63
2023/02/05 16:28:45;;;;;;;;;;;;;;;;;;5077628;28;5087;-63
2023/02/05 16:31:20;;;;;;;;;;;;;;;;;;5038799;28;4496;-62
2023/02/05 16:33:51;;;;;;;;;;;;;;;;;;5045540;28;5034;-63
2023/02/05 16:36:21;;;;;;;;;;;;;;;;;;5042271;28;5178;-62
2023/02/05 16:38:53;;;;;;;;;;;;;;;;;;5045361;28;4569;-60
2023/02/05 16:41:39;;;;;;;;;;;;;;;;;;5058631;28;5026;-62
2023/02/05 16:44:07;;;;;;;;;;;;;;;;;;5041814;28;4708;-59
2023/02/05 16:46:33;;;;;;;;;;;;;;;;;;5043612;28;5149;-62
2023/02/05 16:48:59;;;;;;;;;;;;;;;;;;5045182;28;4597;-61
2023/02/05 16:51:34;;;;;;;;;;;;;;;;;;5044302;28;4629;-63
2023/02/05 16:54:00;;;;;;;;;;;;;;;;;;5043867;28;4550;-61
2023/02/05 16:56:27;;;;;;;;;;;;;;;;;;5047920;28;5065;-62
2023/02/05 16:58:54;;;;;;;;;;;;;;;;;;5047755;28;3226;-62
2023/02/05 17:01:26;;;;;;;;;;;;;;;;;;5047971;28;4421;-61
2023/02/05 17:03:52;;;;;;;;;;;;;;;;;;5049091;28;4627;-62
2023/02/05 17:06:17;;;;;;;;;;;;;;;;;;5039373;28;5185;-61
2023/02/05 17:08:46;;;;;;;;;;;;;;;;;;5046951;28;4869;-64
2023/02/05 17:11:29;;;;;;;;;;;;;;;;;;5059547;28;4539;-64
2023/02/05 17:14:21;;;;;;;;;;;;;;;;;;5044987;28;3554;-62
2023/02/05 17:17:12;;;;;;;;;;;;;;;;;;5072026;28;6519;-62
2023/02/05 17:19:38;;;;;;;;;;;;;;;;;;5038048;28;4525;-66
2023/02/05 17:22:12;;;;;;;;;;;;;;;;;;5046680;28;5064;-69
2023/02/05 17:24:37;;;;;;;;;;;;;;;;;;5048102;28;4931;-65
2023/02/05 17:27:03;;;;;;;;;;;;;;;;;;5051061;28;4900;-68